Spring Lake Heights, New Jersey
Current Conditions -  °F | °C
As of 7:15 PM on Saturday 22 Nov 2014 (Local Time) from KBLM Reporting Station
Broken Clouds Broken Clouds  
Wind Chill: 37°   Ceiling: 8500
Heat Index: 43°   Visibility: 10mi
Dew Point: 19°   Wind: 12mph
Humidity: 39%   Direction: 240°WSW
Pressure: 30.26"   Gusts: NA
Location:  40.1528°N, 74.0364°W
Report Text: KBLM 230015Z AUTO 24010KT 10SM BKN085 BKN120 06/M07 A3026 RMK AO1
Loading
Personal Weather Stations






























Interactive Weather Map New forecast layout! Learn more

10-Day Weather Forecast

Advertisements
Track Severe Weather on mobile